sensor_id;sensor_type;location;lat;lon;timestamp;P1;durP1;ratioP1;P2;durP2;ratioP2
38901;SDS011;24661;53.566;9.910;2022-12-20T00:02:10;11.80;;;6.93;;
38901;SDS011;24661;53.566;9.910;2022-12-20T00:04:36;14.20;;;7.93;;
38901;SDS011;24661;53.566;9.910;2022-12-20T00:07:02;13.67;;;7.40;;
38901;SDS011;24661;53.566;9.910;2022-12-20T00:09:28;13.33;;;7.67;;
38901;SDS011;24661;53.566;9.910;2022-12-20T00:11:54;12.53;;;8.20;;
38901;SDS011;24661;53.566;9.910;2022-12-20T00:14:20;12.03;;;7.47;;
38901;SDS011;24661;53.566;9.910;2022-12-20T00:16:46;10.07;;;6.87;;
38901;SDS011;24661;53.566;9.910;2022-12-20T00:19:11;14.67;;;8.20;;
38901;SDS011;24661;53.566;9.910;2022-12-20T00:21:37;14.67;;;7.67;;
38901;SDS011;24661;53.566;9.910;2022-12-20T00:24:03;11.10;;;7.70;;
38901;SDS011;24661;53.566;9.910;2022-12-20T00:26:30;11.97;;;8.10;;
38901;SDS011;24661;53.566;9.910;2022-12-20T00:28:57;10.83;;;7.37;;
38901;SDS011;24661;53.566;9.910;2022-12-20T00:31:24;10.80;;;7.60;;
38901;SDS011;24661;53.566;9.910;2022-12-20T00:33:52;10.13;;;7.73;;
38901;SDS011;24661;53.566;9.910;2022-12-20T00:36:19;11.50;;;7.87;;
38901;SDS011;24661;53.566;9.910;2022-12-20T00:38:47;10.70;;;7.33;;
38901;SDS011;24661;53.566;9.910;2022-12-20T00:41:15;10.77;;;7.00;;
38901;SDS011;24661;53.566;9.910;2022-12-20T00:43:48;10.23;;;7.50;;
38901;SDS011;24661;53.566;9.910;2022-12-20T00:46:15;13.50;;;7.57;;
38901;SDS011;24661;53.566;9.910;2022-12-20T00:48:42;11.63;;;7.70;;
38901;SDS011;24661;53.566;9.910;2022-12-20T00:51:09;11.23;;;7.73;;
38901;SDS011;24661;53.566;9.910;2022-12-20T00:53:37;11.90;;;7.30;;
38901;SDS011;24661;53.566;9.910;2022-12-20T00:56:03;9.80;;;6.67;;
38901;SDS011;24661;53.566;9.910;2022-12-20T00:58:30;14.13;;;7.80;;
38901;SDS011;24661;53.566;9.910;2022-12-20T01:00:57;13.80;;;7.73;;
38901;SDS011;24661;53.566;9.910;2022-12-20T01:03:23;13.93;;;8.17;;
38901;SDS011;24661;53.566;9.910;2022-12-20T01:05:53;12.27;;;7.30;;
38901;SDS011;24661;53.566;9.910;2022-12-20T01:08:28;11.93;;;7.93;;
38901;SDS011;24661;53.566;9.910;2022-12-20T01:11:08;11.00;;;7.37;;
38901;SDS011;24661;53.566;9.910;2022-12-20T01:13:38;12.57;;;8.27;;
38901;SDS011;24661;53.566;9.910;2022-12-20T01:16:09;13.00;;;7.90;;
38901;SDS011;24661;53.566;9.910;2022-12-20T01:18:35;14.13;;;7.73;;
38901;SDS011;24661;53.566;9.910;2022-12-20T01:21:02;12.60;;;7.73;;
38901;SDS011;24661;53.566;9.910;2022-12-20T01:23:29;13.80;;;7.27;;
38901;SDS011;24661;53.566;9.910;2022-12-20T01:25:56;15.83;;;8.00;;
38901;SDS011;24661;53.566;9.910;2022-12-20T01:28:23;11.40;;;7.47;;
38901;SDS011;24661;53.566;9.910;2022-12-20T01:30:49;11.83;;;7.33;;
38901;SDS011;24661;53.566;9.910;2022-12-20T01:33:14;14.00;;;8.03;;
38901;SDS011;24661;53.566;9.910;2022-12-20T01:35:40;12.00;;;8.37;;
38901;SDS011;24661;53.566;9.910;2022-12-20T01:38:06;16.57;;;7.73;;
38901;SDS011;24661;53.566;9.910;2022-12-20T01:40:31;10.87;;;7.10;;
38901;SDS011;24661;53.566;9.910;2022-12-20T01:42:57;10.63;;;7.20;;
38901;SDS011;24661;53.566;9.910;2022-12-20T01:45:27;11.60;;;7.67;;
38901;SDS011;24661;53.566;9.910;2022-12-20T01:47:55;11.40;;;6.83;;
38901;SDS011;24661;53.566;9.910;2022-12-20T01:50:23;11.40;;;6.53;;
38901;SDS011;24661;53.566;9.910;2022-12-20T01:52:49;13.67;;;8.07;;
38901;SDS011;24661;53.566;9.910;2022-12-20T01:55:21;9.87;;;6.57;;
38901;SDS011;24661;53.566;9.910;2022-12-20T01:57:51;10.23;;;6.50;;
38901;SDS011;24661;53.566;9.910;2022-12-20T02:00:21;8.70;;;6.17;;
38901;SDS011;24661;53.566;9.910;2022-12-20T02:02:48;10.77;;;6.13;;
38901;SDS011;24661;53.566;9.910;2022-12-20T02:05:14;10.07;;;6.37;;
38901;SDS011;24661;53.566;9.910;2022-12-20T02:07:42;9.33;;;6.27;;
38901;SDS011;24661;53.566;9.910;2022-12-20T02:10:13;11.37;;;6.60;;
38901;SDS011;24661;53.566;9.910;2022-12-20T02:12:43;13.33;;;6.77;;
38901;SDS011;24661;53.566;9.910;2022-12-20T02:17:55;11.77;;;7.10;;
38901;SDS011;24661;53.566;9.910;2022-12-20T02:20:32;10.50;;;6.57;;
38901;SDS011;24661;53.566;9.910;2022-12-20T02:26:26;9.33;;;6.33;;
38901;SDS011;24661;53.566;9.910;2022-12-20T02:34:47;9.70;;;6.40;;
38901;SDS011;24661;53.566;9.910;2022-12-20T02:37:14;9.20;;;5.67;;
38901;SDS011;24661;53.566;9.910;2022-12-20T02:39:40;9.67;;;6.57;;
38901;SDS011;24661;53.566;9.910;2022-12-20T02:42:09;10.13;;;6.13;;
38901;SDS011;24661;53.566;9.910;2022-12-20T02:45:21;12.33;;;6.07;;
38901;SDS011;24661;53.566;9.910;2022-12-20T02:50:11;7.87;;;5.83;;
38901;SDS011;24661;53.566;9.910;2022-12-20T02:52:38;10.30;;;6.13;;
38901;SDS011;24661;53.566;9.910;2022-12-20T02:55:04;10.83;;;6.00;;
38901;SDS011;24661;53.566;9.910;2022-12-20T02:58:17;10.93;;;6.27;;
38901;SDS011;24661;53.566;9.910;2022-12-20T03:00:23;8.47;;;6.03;;
38901;SDS011;24661;53.566;9.910;2022-12-20T03:02:49;10.27;;;6.43;;
38901;SDS011;24661;53.566;9.910;2022-12-20T03:05:38;11.30;;;6.00;;
38901;SDS011;24661;53.566;9.910;2022-12-20T03:08:09;9.20;;;5.67;;
38901;SDS011;24661;53.566;9.910;2022-12-20T03:10:35;10.00;;;6.10;;
38901;SDS011;24661;53.566;9.910;2022-12-20T03:13:01;9.30;;;5.57;;
38901;SDS011;24661;53.566;9.910;2022-12-20T03:15:27;7.83;;;6.07;;
38901;SDS011;24661;53.566;9.910;2022-12-20T03:17:53;14.93;;;6.60;;
38901;SDS011;24661;53.566;9.910;2022-12-20T03:20:19;11.03;;;6.60;;
38901;SDS011;24661;53.566;9.910;2022-12-20T03:22:44;9.27;;;5.70;;
38901;SDS011;24661;53.566;9.910;2022-12-20T03:25:10;9.27;;;6.07;;
38901;SDS011;24661;53.566;9.910;2022-12-20T03:27:36;10.03;;;6.57;;
38901;SDS011;24661;53.566;9.910;2022-12-20T03:30:02;9.37;;;5.60;;
38901;SDS011;24661;53.566;9.910;2022-12-20T03:32:29;7.97;;;5.23;;
38901;SDS011;24661;53.566;9.910;2022-12-20T03:34:55;12.23;;;6.00;;
38901;SDS011;24661;53.566;9.910;2022-12-20T03:37:20;8.43;;;6.13;;
38901;SDS011;24661;53.566;9.910;2022-12-20T03:39:46;8.23;;;5.83;;
38901;SDS011;24661;53.566;9.910;2022-12-20T03:42:12;10.53;;;5.83;;
38901;SDS011;24661;53.566;9.910;2022-12-20T03:44:37;8.93;;;5.37;;
38901;SDS011;24661;53.566;9.910;2022-12-20T03:47:03;11.07;;;6.17;;
38901;SDS011;24661;53.566;9.910;2022-12-20T03:49:29;10.33;;;5.57;;
38901;SDS011;24661;53.566;9.910;2022-12-20T03:51:55;6.00;;;4.57;;
38901;SDS011;24661;53.566;9.910;2022-12-20T03:54:20;7.97;;;5.47;;
38901;SDS011;24661;53.566;9.910;2022-12-20T03:56:46;9.20;;;5.53;;
38901;SDS011;24661;53.566;9.910;2022-12-20T03:59:11;8.67;;;5.57;;
38901;SDS011;24661;53.566;9.910;2022-12-20T04:01:40;9.27;;;5.23;;
38901;SDS011;24661;53.566;9.910;2022-12-20T04:04:06;8.47;;;5.57;;
38901;SDS011;24661;53.566;9.910;2022-12-20T04:06:34;9.93;;;5.67;;
38901;SDS011;24661;53.566;9.910;2022-12-20T04:08:59;8.40;;;5.40;;
38901;SDS011;24661;53.566;9.910;2022-12-20T04:11:25;10.17;;;5.40;;
38901;SDS011;24661;53.566;9.910;2022-12-20T04:13:52;9.10;;;5.20;;
38901;SDS011;24661;53.566;9.910;2022-12-20T04:16:19;12.63;;;7.07;;
38901;SDS011;24661;53.566;9.910;2022-12-20T04:18:47;9.63;;;5.33;;
38901;SDS011;24661;53.566;9.910;2022-12-20T04:21:13;9.27;;;4.67;;
38901;SDS011;24661;53.566;9.910;2022-12-20T04:23:40;9.13;;;4.90;;
38901;SDS011;24661;53.566;9.910;2022-12-20T04:26:07;10.30;;;5.30;;
38901;SDS011;24661;53.566;9.910;2022-12-20T04:28:34;9.17;;;5.10;;
38901;SDS011;24661;53.566;9.910;2022-12-20T04:31:00;9.47;;;5.30;;
38901;SDS011;24661;53.566;9.910;2022-12-20T04:33:26;9.27;;;5.47;;
38901;SDS011;24661;53.566;9.910;2022-12-20T04:35:53;6.67;;;4.77;;
38901;SDS011;24661;53.566;9.910;2022-12-20T04:38:19;9.77;;;4.80;;
38901;SDS011;24661;53.566;9.910;2022-12-20T04:40:49;7.57;;;5.17;;
38901;SDS011;24661;53.566;9.910;2022-12-20T04:43:16;8.80;;;4.63;;
38901;SDS011;24661;53.566;9.910;2022-12-20T04:45:43;9.00;;;4.87;;
38901;SDS011;24661;53.566;9.910;2022-12-20T04:48:09;8.60;;;5.23;;
38901;SDS011;24661;53.566;9.910;2022-12-20T04:50:35;8.97;;;4.63;;
38901;SDS011;24661;53.566;9.910;2022-12-20T04:53:01;6.63;;;5.10;;
38901;SDS011;24661;53.566;9.910;2022-12-20T04:55:45;9.53;;;4.93;;
38901;SDS011;24661;53.566;9.910;2022-12-20T04:58:11;8.90;;;4.77;;
38901;SDS011;24661;53.566;9.910;2022-12-20T05:00:37;7.03;;;4.80;;
38901;SDS011;24661;53.566;9.910;2022-12-20T05:03:03;8.03;;;4.63;;
38901;SDS011;24661;53.566;9.910;2022-12-20T05:05:28;8.30;;;5.63;;
38901;SDS011;24661;53.566;9.910;2022-12-20T05:07:54;8.73;;;5.10;;
38901;SDS011;24661;53.566;9.910;2022-12-20T05:10:20;9.63;;;5.87;;
38901;SDS011;24661;53.566;9.910;2022-12-20T05:12:45;8.83;;;5.77;;
38901;SDS011;24661;53.566;9.910;2022-12-20T05:15:12;12.17;;;5.73;;
38901;SDS011;24661;53.566;9.910;2022-12-20T05:17:37;10.00;;;5.87;;
38901;SDS011;24661;53.566;9.910;2022-12-20T05:20:04;10.73;;;5.07;;
38901;SDS011;24661;53.566;9.910;2022-12-20T05:22:30;8.13;;;5.70;;
38901;SDS011;24661;53.566;9.910;2022-12-20T05:25:15;13.93;;;6.00;;
38901;SDS011;24661;53.566;9.910;2022-12-20T05:27:59;12.67;;;6.53;;
38901;SDS011;24661;53.566;9.910;2022-12-20T05:30:24;8.60;;;5.30;;
38901;SDS011;24661;53.566;9.910;2022-12-20T05:32:50;9.30;;;5.30;;
38901;SDS011;24661;53.566;9.910;2022-12-20T05:35:16;9.27;;;5.30;;
38901;SDS011;24661;53.566;9.910;2022-12-20T05:37:42;9.07;;;5.50;;
38901;SDS011;24661;53.566;9.910;2022-12-20T05:40:07;8.57;;;5.10;;
38901;SDS011;24661;53.566;9.910;2022-12-20T05:42:34;9.67;;;5.83;;
38901;SDS011;24661;53.566;9.910;2022-12-20T05:45:00;10.17;;;5.23;;
38901;SDS011;24661;53.566;9.910;2022-12-20T05:47:26;8.90;;;6.10;;
38901;SDS011;24661;53.566;9.910;2022-12-20T05:49:52;11.63;;;5.80;;
38901;SDS011;24661;53.566;9.910;2022-12-20T05:52:19;9.20;;;5.10;;
38901;SDS011;24661;53.566;9.910;2022-12-20T05:54:45;8.23;;;4.97;;
38901;SDS011;24661;53.566;9.910;2022-12-20T05:57:10;9.03;;;5.37;;
38901;SDS011;24661;53.566;9.910;2022-12-20T05:59:36;10.90;;;6.30;;
38901;SDS011;24661;53.566;9.910;2022-12-20T06:02:02;7.33;;;5.00;;
38901;SDS011;24661;53.566;9.910;2022-12-20T06:04:27;13.87;;;5.80;;
38901;SDS011;24661;53.566;9.910;2022-12-20T06:06:55;7.03;;;5.37;;
38901;SDS011;24661;53.566;9.910;2022-12-20T06:09:20;6.50;;;5.00;;
38901;SDS011;24661;53.566;9.910;2022-12-20T06:11:46;6.40;;;4.40;;
38901;SDS011;24661;53.566;9.910;2022-12-20T06:14:11;9.07;;;5.57;;
38901;SDS011;24661;53.566;9.910;2022-12-20T06:16:37;7.87;;;5.40;;
38901;SDS011;24661;53.566;9.910;2022-12-20T06:19:03;8.27;;;5.60;;
38901;SDS011;24661;53.566;9.910;2022-12-20T06:21:28;12.20;;;5.63;;
38901;SDS011;24661;53.566;9.910;2022-12-20T06:23:54;8.80;;;5.87;;
38901;SDS011;24661;53.566;9.910;2022-12-20T06:26:20;10.07;;;5.53;;
38901;SDS011;24661;53.566;9.910;2022-12-20T06:28:49;8.13;;;5.20;;
38901;SDS011;24661;53.566;9.910;2022-12-20T06:31:18;9.77;;;5.50;;
38901;SDS011;24661;53.566;9.910;2022-12-20T06:33:44;7.67;;;5.70;;
38901;SDS011;24661;53.566;9.910;2022-12-20T06:36:10;11.93;;;5.80;;
38901;SDS011;24661;53.566;9.910;2022-12-20T06:38:36;9.63;;;6.07;;
38901;SDS011;24661;53.566;9.910;2022-12-20T06:41:02;8.93;;;5.13;;
38901;SDS011;24661;53.566;9.910;2022-12-20T06:43:27;8.87;;;5.23;;
38901;SDS011;24661;53.566;9.910;2022-12-20T06:45:53;10.17;;;5.80;;
38901;SDS011;24661;53.566;9.910;2022-12-20T06:48:19;10.23;;;5.87;;
38901;SDS011;24661;53.566;9.910;2022-12-20T06:50:47;7.20;;;5.00;;
38901;SDS011;24661;53.566;9.910;2022-12-20T06:53:13;8.43;;;5.63;;
38901;SDS011;24661;53.566;9.910;2022-12-20T06:55:39;7.90;;;5.50;;
38901;SDS011;24661;53.566;9.910;2022-12-20T06:58:04;6.60;;;5.30;;
38901;SDS011;24661;53.566;9.910;2022-12-20T07:00:30;8.97;;;5.63;;
38901;SDS011;24661;53.566;9.910;2022-12-20T07:02:56;9.60;;;5.07;;
38901;SDS011;24661;53.566;9.910;2022-12-20T07:05:22;10.17;;;5.83;;
38901;SDS011;24661;53.566;9.910;2022-12-20T07:07:47;8.73;;;5.67;;
38901;SDS011;24661;53.566;9.910;2022-12-20T07:10:13;8.90;;;5.43;;
38901;SDS011;24661;53.566;9.910;2022-12-20T07:12:39;10.83;;;6.70;;
38901;SDS011;24661;53.566;9.910;2022-12-20T07:15:05;8.27;;;5.63;;
38901;SDS011;24661;53.566;9.910;2022-12-20T07:17:32;11.83;;;6.70;;
38901;SDS011;24661;53.566;9.910;2022-12-20T07:19:58;8.17;;;5.43;;
38901;SDS011;24661;53.566;9.910;2022-12-20T07:22:24;10.10;;;6.57;;
38901;SDS011;24661;53.566;9.910;2022-12-20T07:24:50;10.30;;;5.47;;
38901;SDS011;24661;53.566;9.910;2022-12-20T07:27:16;15.50;;;6.63;;
38901;SDS011;24661;53.566;9.910;2022-12-20T07:29:41;10.10;;;5.90;;
38901;SDS011;24661;53.566;9.910;2022-12-20T07:32:07;10.27;;;6.20;;
38901;SDS011;24661;53.566;9.910;2022-12-20T07:34:33;7.43;;;6.20;;
38901;SDS011;24661;53.566;9.910;2022-12-20T07:37:00;9.90;;;6.13;;
38901;SDS011;24661;53.566;9.910;2022-12-20T07:39:26;9.87;;;7.17;;
38901;SDS011;24661;53.566;9.910;2022-12-20T07:41:52;8.37;;;5.27;;
38901;SDS011;24661;53.566;9.910;2022-12-20T07:44:19;8.77;;;6.03;;
38901;SDS011;24661;53.566;9.910;2022-12-20T07:46:45;10.77;;;6.50;;
38901;SDS011;24661;53.566;9.910;2022-12-20T07:49:11;9.70;;;6.00;;
38901;SDS011;24661;53.566;9.910;2022-12-20T07:51:38;10.80;;;6.00;;
38901;SDS011;24661;53.566;9.910;2022-12-20T07:57:11;10.70;;;6.13;;
38901;SDS011;24661;53.566;9.910;2022-12-20T07:59:42;13.23;;;7.13;;
38901;SDS011;24661;53.566;9.910;2022-12-20T08:02:15;8.87;;;5.47;;
38901;SDS011;24661;53.566;9.910;2022-12-20T08:04:45;10.00;;;6.30;;
38901;SDS011;24661;53.566;9.910;2022-12-20T08:07:12;10.40;;;5.47;;
38901;SDS011;24661;53.566;9.910;2022-12-20T08:09:38;10.47;;;6.33;;
38901;SDS011;24661;53.566;9.910;2022-12-20T08:12:08;8.33;;;5.53;;
38901;SDS011;24661;53.566;9.910;2022-12-20T08:14:35;8.60;;;5.63;;
38901;SDS011;24661;53.566;9.910;2022-12-20T08:17:02;8.67;;;6.13;;
38901;SDS011;24661;53.566;9.910;2022-12-20T08:19:27;9.83;;;5.13;;
38901;SDS011;24661;53.566;9.910;2022-12-20T08:21:53;10.77;;;5.57;;
38901;SDS011;24661;53.566;9.910;2022-12-20T08:24:19;8.40;;;5.87;;
38901;SDS011;24661;53.566;9.910;2022-12-20T08:26:44;9.77;;;5.20;;
38901;SDS011;24661;53.566;9.910;2022-12-20T08:29:10;7.60;;;5.20;;
38901;SDS011;24661;53.566;9.910;2022-12-20T08:31:37;7.60;;;4.97;;
38901;SDS011;24661;53.566;9.910;2022-12-20T08:34:04;11.70;;;6.20;;
38901;SDS011;24661;53.566;9.910;2022-12-20T08:36:30;10.23;;;5.17;;
38901;SDS011;24661;53.566;9.910;2022-12-20T08:38:55;10.13;;;5.30;;
38901;SDS011;24661;53.566;9.910;2022-12-20T08:41:21;7.33;;;4.87;;
38901;SDS011;24661;53.566;9.910;2022-12-20T08:43:47;9.10;;;5.77;;
38901;SDS011;24661;53.566;9.910;2022-12-20T08:46:13;10.77;;;5.53;;
38901;SDS011;24661;53.566;9.910;2022-12-20T08:48:38;8.03;;;5.07;;
38901;SDS011;24661;53.566;9.910;2022-12-20T08:51:06;10.73;;;5.47;;
38901;SDS011;24661;53.566;9.910;2022-12-20T08:53:34;8.47;;;5.33;;
38901;SDS011;24661;53.566;9.910;2022-12-20T08:56:07;11.20;;;4.83;;
38901;SDS011;24661;53.566;9.910;2022-12-20T08:58:35;9.00;;;5.90;;
38901;SDS011;24661;53.566;9.910;2022-12-20T09:01:03;7.63;;;5.90;;
38901;SDS011;24661;53.566;9.910;2022-12-20T09:03:30;8.53;;;6.40;;
38901;SDS011;24661;53.566;9.910;2022-12-20T09:05:57;8.90;;;5.73;;
38901;SDS011;24661;53.566;9.910;2022-12-20T09:08:23;44.97;;;8.03;;
38901;SDS011;24661;53.566;9.910;2022-12-20T09:10:49;8.23;;;5.07;;
38901;SDS011;24661;53.566;9.910;2022-12-20T09:13:15;7.40;;;5.60;;
38901;SDS011;24661;53.566;9.910;2022-12-20T09:15:41;8.83;;;5.47;;
38901;SDS011;24661;53.566;9.910;2022-12-20T09:18:07;9.00;;;5.97;;
38901;SDS011;24661;53.566;9.910;2022-12-20T09:20:33;9.17;;;5.03;;
38901;SDS011;24661;53.566;9.910;2022-12-20T09:22:58;9.10;;;6.33;;
38901;SDS011;24661;53.566;9.910;2022-12-20T09:25:25;10.27;;;6.00;;
38901;SDS011;24661;53.566;9.910;2022-12-20T09:27:52;10.63;;;6.90;;
38901;SDS011;24661;53.566;9.910;2022-12-20T09:30:20;8.80;;;5.87;;
38901;SDS011;24661;53.566;9.910;2022-12-20T09:32:46;9.70;;;6.13;;
38901;SDS011;24661;53.566;9.910;2022-12-20T09:35:12;10.50;;;5.40;;
38901;SDS011;24661;53.566;9.910;2022-12-20T09:37:38;9.80;;;6.70;;
38901;SDS011;24661;53.566;9.910;2022-12-20T09:40:03;9.07;;;5.13;;
38901;SDS011;24661;53.566;9.910;2022-12-20T09:42:33;7.70;;;5.40;;
38901;SDS011;24661;53.566;9.910;2022-12-20T09:45:05;8.80;;;5.57;;
38901;SDS011;24661;53.566;9.910;2022-12-20T09:47:34;7.23;;;5.87;;
38901;SDS011;24661;53.566;9.910;2022-12-20T09:50:01;11.00;;;6.03;;
38901;SDS011;24661;53.566;9.910;2022-12-20T09:52:41;8.33;;;5.90;;
38901;SDS011;24661;53.566;9.910;2022-12-20T10:01:15;6.60;;;5.63;;
38901;SDS011;24661;53.566;9.910;2022-12-20T10:03:44;10.57;;;5.70;;
38901;SDS011;24661;53.566;9.910;2022-12-20T10:06:32;9.77;;;6.07;;
38901;SDS011;24661;53.566;9.910;2022-12-20T10:09:12;11.00;;;6.63;;
38901;SDS011;24661;53.566;9.910;2022-12-20T10:12:06;12.17;;;6.93;;
38901;SDS011;24661;53.566;9.910;2022-12-20T10:20:34;13.70;;;7.50;;
38901;SDS011;24661;53.566;9.910;2022-12-20T10:23:14;9.20;;;6.70;;
38901;SDS011;24661;53.566;9.910;2022-12-20T10:25:51;12.13;;;7.90;;
38901;SDS011;24661;53.566;9.910;2022-12-20T10:28:22;8.87;;;6.57;;
38901;SDS011;24661;53.566;9.910;2022-12-20T10:31:04;11.60;;;6.30;;
38901;SDS011;24661;53.566;9.910;2022-12-20T10:33:32;11.90;;;6.63;;
38901;SDS011;24661;53.566;9.910;2022-12-20T10:36:17;10.07;;;6.03;;
38901;SDS011;24661;53.566;9.910;2022-12-20T10:38:47;7.53;;;5.60;;
38901;SDS011;24661;53.566;9.910;2022-12-20T10:41:18;9.30;;;5.93;;
38901;SDS011;24661;53.566;9.910;2022-12-20T10:46:39;8.40;;;5.23;;
38901;SDS011;24661;53.566;9.910;2022-12-20T10:52:03;6.97;;;5.40;;
38901;SDS011;24661;53.566;9.910;2022-12-20T10:54:35;11.20;;;6.37;;
38901;SDS011;24661;53.566;9.910;2022-12-20T11:04:55;6.33;;;4.53;;
38901;SDS011;24661;53.566;9.910;2022-12-20T11:07:24;7.10;;;4.53;;
38901;SDS011;24661;53.566;9.910;2022-12-20T11:09:54;7.10;;;5.10;;
38901;SDS011;24661;53.566;9.910;2022-12-20T11:12:21;5.73;;;3.97;;
38901;SDS011;24661;53.566;9.910;2022-12-20T11:14:47;5.70;;;4.37;;
38901;SDS011;24661;53.566;9.910;2022-12-20T11:19:52;8.00;;;4.50;;
38901;SDS011;24661;53.566;9.910;2022-12-20T11:22:41;8.30;;;5.33;;
38901;SDS011;24661;53.566;9.910;2022-12-20T11:28:05;6.00;;;4.17;;
38901;SDS011;24661;53.566;9.910;2022-12-20T11:30:51;5.47;;;3.90;;
38901;SDS011;24661;53.566;9.910;2022-12-20T11:33:40;6.13;;;4.13;;
38901;SDS011;24661;53.566;9.910;2022-12-20T11:39:29;6.27;;;4.07;;
38901;SDS011;24661;53.566;9.910;2022-12-20T11:42:11;5.07;;;4.07;;
38901;SDS011;24661;53.566;9.910;2022-12-20T11:47:41;7.43;;;4.10;;
38901;SDS011;24661;53.566;9.910;2022-12-20T11:52:56;5.57;;;3.53;;
38901;SDS011;24661;53.566;9.910;2022-12-20T11:55:31;6.97;;;3.80;;
38901;SDS011;24661;53.566;9.910;2022-12-20T12:00:29;6.50;;;4.30;;
38901;SDS011;24661;53.566;9.910;2022-12-20T12:06:15;9.03;;;3.93;;
38901;SDS011;24661;53.566;9.910;2022-12-20T12:11:31;9.63;;;4.33;;
38901;SDS011;24661;53.566;9.910;2022-12-20T12:14:02;6.57;;;4.13;;
38901;SDS011;24661;53.566;9.910;2022-12-20T12:16:38;5.93;;;3.80;;
38901;SDS011;24661;53.566;9.910;2022-12-20T12:19:10;6.83;;;4.33;;
38901;SDS011;24661;53.566;9.910;2022-12-20T12:21:38;7.73;;;4.37;;
38901;SDS011;24661;53.566;9.910;2022-12-20T12:26:40;8.57;;;3.90;;
38901;SDS011;24661;53.566;9.910;2022-12-20T12:29:10;6.10;;;3.70;;
38901;SDS011;24661;53.566;9.910;2022-12-20T12:31:40;6.23;;;4.73;;
38901;SDS011;24661;53.566;9.910;2022-12-20T12:37:18;8.97;;;4.20;;
38901;SDS011;24661;53.566;9.910;2022-12-20T12:45:23;11.20;;;4.63;;
38901;SDS011;24661;53.566;9.910;2022-12-20T12:48:31;6.73;;;4.73;;
38901;SDS011;24661;53.566;9.910;2022-12-20T12:51:01;6.60;;;4.17;;
38901;SDS011;24661;53.566;9.910;2022-12-20T12:53:35;11.07;;;4.73;;
38901;SDS011;24661;53.566;9.910;2022-12-20T13:09:17;7.40;;;4.87;;
38901;SDS011;24661;53.566;9.910;2022-12-20T13:12:00;9.57;;;5.90;;
38901;SDS011;24661;53.566;9.910;2022-12-20T13:15:47;8.13;;;4.87;;
38901;SDS011;24661;53.566;9.910;2022-12-20T13:17:56;6.77;;;4.83;;
38901;SDS011;24661;53.566;9.910;2022-12-20T13:25:45;9.17;;;5.00;;
38901;SDS011;24661;53.566;9.910;2022-12-20T13:33:43;11.90;;;6.30;;
38901;SDS011;24661;53.566;9.910;2022-12-20T13:43:40;7.23;;;5.53;;
38901;SDS011;24661;53.566;9.910;2022-12-20T13:51:12;10.40;;;5.63;;
38901;SDS011;24661;53.566;9.910;2022-12-20T13:53:56;13.47;;;6.90;;
38901;SDS011;24661;53.566;9.910;2022-12-20T13:58:54;8.60;;;5.40;;
38901;SDS011;24661;53.566;9.910;2022-12-20T14:01:22;9.53;;;5.87;;
38901;SDS011;24661;53.566;9.910;2022-12-20T14:03:49;10.07;;;5.37;;
38901;SDS011;24661;53.566;9.910;2022-12-20T14:06:17;7.80;;;5.10;;
38901;SDS011;24661;53.566;9.910;2022-12-20T14:08:49;10.40;;;5.73;;
38901;SDS011;24661;53.566;9.910;2022-12-20T14:11:17;9.67;;;5.90;;
38901;SDS011;24661;53.566;9.910;2022-12-20T14:13:57;6.30;;;4.77;;
38901;SDS011;24661;53.566;9.910;2022-12-20T14:16:26;9.27;;;5.40;;
38901;SDS011;24661;53.566;9.910;2022-12-20T14:21:22;10.60;;;5.87;;
38901;SDS011;24661;53.566;9.910;2022-12-20T14:23:50;8.07;;;5.00;;
38901;SDS011;24661;53.566;9.910;2022-12-20T14:26:20;13.37;;;6.57;;
38901;SDS011;24661;53.566;9.910;2022-12-20T14:28:53;9.80;;;5.70;;
38901;SDS011;24661;53.566;9.910;2022-12-20T14:31:24;9.67;;;5.77;;
38901;SDS011;24661;53.566;9.910;2022-12-20T14:34:10;12.47;;;5.87;;
38901;SDS011;24661;53.566;9.910;2022-12-20T14:39:22;11.37;;;6.87;;
38901;SDS011;24661;53.566;9.910;2022-12-20T14:42:35;9.63;;;6.33;;
38901;SDS011;24661;53.566;9.910;2022-12-20T14:44:35;8.47;;;5.43;;
38901;SDS011;24661;53.566;9.910;2022-12-20T14:47:20;8.17;;;5.70;;
38901;SDS011;24661;53.566;9.910;2022-12-20T14:49:51;11.17;;;6.20;;
38901;SDS011;24661;53.566;9.910;2022-12-20T14:52:33;14.80;;;6.30;;
38901;SDS011;24661;53.566;9.910;2022-12-20T15:08:21;11.63;;;6.60;;
38901;SDS011;24661;53.566;9.910;2022-12-20T15:13:45;8.83;;;6.77;;
38901;SDS011;24661;53.566;9.910;2022-12-20T15:18:37;13.07;;;6.73;;
38901;SDS011;24661;53.566;9.910;2022-12-20T15:21:04;11.10;;;7.03;;
38901;SDS011;24661;53.566;9.910;2022-12-20T15:23:42;9.67;;;6.30;;
38901;SDS011;24661;53.566;9.910;2022-12-20T15:26:15;12.50;;;6.87;;
38901;SDS011;24661;53.566;9.910;2022-12-20T15:28:41;6.87;;;5.50;;
38901;SDS011;24661;53.566;9.910;2022-12-20T15:31:10;12.00;;;6.80;;
38901;SDS011;24661;53.566;9.910;2022-12-20T15:33:38;9.50;;;6.63;;
38901;SDS011;24661;53.566;9.910;2022-12-20T15:36:06;10.10;;;6.40;;
38901;SDS011;24661;53.566;9.910;2022-12-20T15:38:40;10.50;;;5.80;;
38901;SDS011;24661;53.566;9.910;2022-12-20T15:41:07;9.77;;;6.63;;
38901;SDS011;24661;53.566;9.910;2022-12-20T15:43:54;12.47;;;7.07;;
38901;SDS011;24661;53.566;9.910;2022-12-20T15:46:30;9.57;;;6.33;;
38901;SDS011;24661;53.566;9.910;2022-12-20T15:48:56;12.97;;;5.80;;
38901;SDS011;24661;53.566;9.910;2022-12-20T15:51:26;10.33;;;6.33;;
38901;SDS011;24661;53.566;9.910;2022-12-20T15:53:55;8.17;;;5.63;;
38901;SDS011;24661;53.566;9.910;2022-12-20T15:56:22;11.13;;;6.33;;
38901;SDS011;24661;53.566;9.910;2022-12-20T15:58:49;9.43;;;6.63;;
38901;SDS011;24661;53.566;9.910;2022-12-20T16:01:26;10.03;;;6.90;;
38901;SDS011;24661;53.566;9.910;2022-12-20T16:03:59;8.03;;;5.83;;
38901;SDS011;24661;53.566;9.910;2022-12-20T16:06:25;10.27;;;6.70;;
38901;SDS011;24661;53.566;9.910;2022-12-20T16:08:50;9.47;;;5.80;;
38901;SDS011;24661;53.566;9.910;2022-12-20T16:11:20;9.97;;;6.17;;
38901;SDS011;24661;53.566;9.910;2022-12-20T16:13:54;8.43;;;5.90;;
38901;SDS011;24661;53.566;9.910;2022-12-20T16:16:22;7.77;;;5.63;;
38901;SDS011;24661;53.566;9.910;2022-12-20T16:18:49;8.60;;;5.40;;
38901;SDS011;24661;53.566;9.910;2022-12-20T16:21:21;8.90;;;6.10;;
38901;SDS011;24661;53.566;9.910;2022-12-20T16:23:48;12.37;;;6.20;;
38901;SDS011;24661;53.566;9.910;2022-12-20T16:26:18;7.87;;;5.23;;
38901;SDS011;24661;53.566;9.910;2022-12-20T16:28:45;9.30;;;6.27;;
38901;SDS011;24661;53.566;9.910;2022-12-20T16:31:25;8.73;;;6.17;;
38901;SDS011;24661;53.566;9.910;2022-12-20T16:33:55;12.67;;;5.80;;
38901;SDS011;24661;53.566;9.910;2022-12-20T16:36:21;10.80;;;6.20;;
38901;SDS011;24661;53.566;9.910;2022-12-20T16:38:48;8.73;;;6.87;;
38901;SDS011;24661;53.566;9.910;2022-12-20T16:41:16;11.23;;;6.57;;
38901;SDS011;24661;53.566;9.910;2022-12-20T16:43:43;10.10;;;5.87;;
38901;SDS011;24661;53.566;9.910;2022-12-20T16:46:18;9.83;;;6.60;;
38901;SDS011;24661;53.566;9.910;2022-12-20T16:48:45;8.33;;;5.80;;
38901;SDS011;24661;53.566;9.910;2022-12-20T16:51:22;9.90;;;5.67;;
38901;SDS011;24661;53.566;9.910;2022-12-20T16:53:51;10.57;;;7.60;;
38901;SDS011;24661;53.566;9.910;2022-12-20T16:56:18;9.23;;;6.60;;
38901;SDS011;24661;53.566;9.910;2022-12-20T16:58:44;10.03;;;7.43;;
38901;SDS011;24661;53.566;9.910;2022-12-20T17:01:13;12.73;;;6.80;;
38901;SDS011;24661;53.566;9.910;2022-12-20T17:03:44;9.73;;;6.07;;
38901;SDS011;24661;53.566;9.910;2022-12-20T17:06:10;9.50;;;6.47;;
38901;SDS011;24661;53.566;9.910;2022-12-20T17:08:38;7.10;;;6.37;;
38901;SDS011;24661;53.566;9.910;2022-12-20T17:13:42;9.70;;;5.77;;
38901;SDS011;24661;53.566;9.910;2022-12-20T17:16:12;11.10;;;7.07;;
38901;SDS011;24661;53.566;9.910;2022-12-20T17:18:39;9.20;;;6.33;;